sensor_id;sensor_type;location;lat;lon;timestamp;P1;durP1;ratioP1;P2;durP2;ratioP2
29634;SDS011;16557;54.762;56.068;2023-03-01T00:01:54;5.40;;;3.80;;
29634;SDS011;16557;54.762;56.068;2023-03-01T00:04:23;6.03;;;4.00;;
29634;SDS011;16557;54.762;56.068;2023-03-01T00:06:53;6.55;;;4.40;;
29634;SDS011;16557;54.762;56.068;2023-03-01T00:09:22;5.70;;;3.95;;
29634;SDS011;16557;54.762;56.068;2023-03-01T00:11:51;6.75;;;3.90;;
29634;SDS011;16557;54.762;56.068;2023-03-01T00:14:21;5.80;;;4.08;;
29634;SDS011;16557;54.762;56.068;2023-03-01T00:16:51;5.58;;;4.12;;
29634;SDS011;16557;54.762;56.068;2023-03-01T00:19:20;8.58;;;4.70;;
29634;SDS011;16557;54.762;56.068;2023-03-01T00:21:49;6.58;;;5.03;;
29634;SDS011;16557;54.762;56.068;2023-03-01T00:24:19;6.42;;;4.50;;
29634;SDS011;16557;54.762;56.068;2023-03-01T00:26:48;6.70;;;4.65;;
29634;SDS011;16557;54.762;56.068;2023-03-01T00:29:19;5.95;;;4.70;;
29634;SDS011;16557;54.762;56.068;2023-03-01T00:31:48;6.92;;;4.45;;
29634;SDS011;16557;54.762;56.068;2023-03-01T00:34:17;6.92;;;4.87;;
29634;SDS011;16557;54.762;56.068;2023-03-01T00:36:47;8.15;;;4.87;;
29634;SDS011;16557;54.762;56.068;2023-03-01T00:39:16;7.40;;;5.45;;
29634;SDS011;16557;54.762;56.068;2023-03-01T00:41:45;7.17;;;5.08;;
29634;SDS011;16557;54.762;56.068;2023-03-01T00:44:14;6.92;;;4.95;;
29634;SDS011;16557;54.762;56.068;2023-03-01T00:46:44;8.65;;;5.30;;
29634;SDS011;16557;54.762;56.068;2023-03-01T00:49:13;8.30;;;6.12;;
29634;SDS011;16557;54.762;56.068;2023-03-01T00:51:43;6.42;;;4.65;;
29634;SDS011;16557;54.762;56.068;2023-03-01T00:54:12;7.35;;;5.15;;
29634;SDS011;16557;54.762;56.068;2023-03-01T00:56:41;7.37;;;5.00;;
29634;SDS011;16557;54.762;56.068;2023-03-01T00:59:10;10.23;;;5.62;;
29634;SDS011;16557;54.762;56.068;2023-03-01T01:01:39;9.48;;;5.53;;
29634;SDS011;16557;54.762;56.068;2023-03-01T01:04:10;8.20;;;5.67;;
29634;SDS011;16557;54.762;56.068;2023-03-01T01:06:41;8.33;;;5.95;;
29634;SDS011;16557;54.762;56.068;2023-03-01T01:09:13;9.58;;;6.55;;
29634;SDS011;16557;54.762;56.068;2023-03-01T01:11:47;11.55;;;6.40;;
29634;SDS011;16557;54.762;56.068;2023-03-01T01:14:18;9.05;;;5.85;;
29634;SDS011;16557;54.762;56.068;2023-03-01T01:16:48;10.72;;;6.47;;
29634;SDS011;16557;54.762;56.068;2023-03-01T01:19:17;8.88;;;6.22;;
29634;SDS011;16557;54.762;56.068;2023-03-01T01:21:46;8.85;;;6.25;;
29634;SDS011;16557;54.762;56.068;2023-03-01T01:24:15;7.15;;;4.72;;
29634;SDS011;16557;54.762;56.068;2023-03-01T01:26:45;7.58;;;5.47;;
29634;SDS011;16557;54.762;56.068;2023-03-01T01:29:14;8.40;;;5.85;;
29634;SDS011;16557;54.762;56.068;2023-03-01T01:31:44;7.45;;;5.20;;
29634;SDS011;16557;54.762;56.068;2023-03-01T01:34:15;9.40;;;5.67;;
29634;SDS011;16557;54.762;56.068;2023-03-01T01:36:49;8.28;;;5.90;;
29634;SDS011;16557;54.762;56.068;2023-03-01T01:39:21;10.93;;;7.17;;
29634;SDS011;16557;54.762;56.068;2023-03-01T01:41:50;10.00;;;6.37;;
29634;SDS011;16557;54.762;56.068;2023-03-01T01:44:24;9.98;;;6.55;;
29634;SDS011;16557;54.762;56.068;2023-03-01T01:49:38;9.18;;;6.17;;
29634;SDS011;16557;54.762;56.068;2023-03-01T01:52:27;8.85;;;6.10;;
29634;SDS011;16557;54.762;56.068;2023-03-01T01:55:17;8.18;;;5.83;;
29634;SDS011;16557;54.762;56.068;2023-03-01T01:57:49;8.38;;;5.80;;
29634;SDS011;16557;54.762;56.068;2023-03-01T02:00:22;8.55;;;6.03;;
29634;SDS011;16557;54.762;56.068;2023-03-01T02:03:01;10.55;;;5.90;;
29634;SDS011;16557;54.762;56.068;2023-03-01T02:08:21;9.53;;;6.85;;
29634;SDS011;16557;54.762;56.068;2023-03-01T02:10:53;12.20;;;7.05;;
29634;SDS011;16557;54.762;56.068;2023-03-01T02:13:24;10.05;;;6.03;;
29634;SDS011;16557;54.762;56.068;2023-03-01T02:15:54;8.08;;;5.85;;
29634;SDS011;16557;54.762;56.068;2023-03-01T02:18:24;11.05;;;7.03;;
29634;SDS011;16557;54.762;56.068;2023-03-01T02:20:59;10.00;;;6.50;;
29634;SDS011;16557;54.762;56.068;2023-03-01T02:23:28;11.05;;;6.67;;
29634;SDS011;16557;54.762;56.068;2023-03-01T02:28:55;10.28;;;6.70;;
29634;SDS011;16557;54.762;56.068;2023-03-01T02:31:24;10.18;;;7.10;;
29634;SDS011;16557;54.762;56.068;2023-03-01T02:33:55;9.35;;;6.58;;
29634;SDS011;16557;54.762;56.068;2023-03-01T02:36:27;11.40;;;7.50;;
29634;SDS011;16557;54.762;56.068;2023-03-01T02:39:00;10.03;;;7.22;;
29634;SDS011;16557;54.762;56.068;2023-03-01T02:41:35;10.28;;;6.95;;
29634;SDS011;16557;54.762;56.068;2023-03-01T02:44:05;10.43;;;7.08;;
29634;SDS011;16557;54.762;56.068;2023-03-01T02:46:41;9.33;;;7.08;;
29634;SDS011;16557;54.762;56.068;2023-03-01T02:49:23;10.88;;;6.50;;
29634;SDS011;16557;54.762;56.068;2023-03-01T02:57:23;9.80;;;6.60;;
29634;SDS011;16557;54.762;56.068;2023-03-01T02:59:54;10.80;;;7.40;;
29634;SDS011;16557;54.762;56.068;2023-03-01T03:02:27;11.93;;;7.62;;
29634;SDS011;16557;54.762;56.068;2023-03-01T03:05:09;10.25;;;6.55;;
29634;SDS011;16557;54.762;56.068;2023-03-01T03:07:40;11.25;;;7.17;;
29634;SDS011;16557;54.762;56.068;2023-03-01T03:10:12;11.55;;;7.72;;
29634;SDS011;16557;54.762;56.068;2023-03-01T03:15:37;13.20;;;8.23;;
29634;SDS011;16557;54.762;56.068;2023-03-01T03:18:08;11.35;;;7.05;;
29634;SDS011;16557;54.762;56.068;2023-03-01T03:20:39;11.43;;;6.90;;
29634;SDS011;16557;54.762;56.068;2023-03-01T03:23:09;11.55;;;8.08;;
29634;SDS011;16557;54.762;56.068;2023-03-01T03:25:39;12.20;;;7.78;;
29634;SDS011;16557;54.762;56.068;2023-03-01T03:28:08;9.90;;;6.72;;
29634;SDS011;16557;54.762;56.068;2023-03-01T03:30:38;12.47;;;7.65;;
29634;SDS011;16557;54.762;56.068;2023-03-01T03:33:09;12.53;;;7.70;;
29634;SDS011;16557;54.762;56.068;2023-03-01T03:35:43;14.47;;;8.70;;
29634;SDS011;16557;54.762;56.068;2023-03-01T03:38:14;12.37;;;8.18;;
29634;SDS011;16557;54.762;56.068;2023-03-01T03:40:45;10.03;;;7.72;;
29634;SDS011;16557;54.762;56.068;2023-03-01T03:43:17;11.33;;;7.55;;
29634;SDS011;16557;54.762;56.068;2023-03-01T03:45:50;10.63;;;6.92;;
29634;SDS011;16557;54.762;56.068;2023-03-01T03:48:21;10.38;;;7.10;;
29634;SDS011;16557;54.762;56.068;2023-03-01T03:50:51;10.23;;;7.10;;
29634;SDS011;16557;54.762;56.068;2023-03-01T03:53:22;12.18;;;7.35;;
29634;SDS011;16557;54.762;56.068;2023-03-01T03:55:53;9.95;;;7.05;;
29634;SDS011;16557;54.762;56.068;2023-03-01T03:58:23;12.95;;;7.47;;
29634;SDS011;16557;54.762;56.068;2023-03-01T04:00:53;11.70;;;7.30;;
29634;SDS011;16557;54.762;56.068;2023-03-01T04:03:24;11.78;;;7.78;;
29634;SDS011;16557;54.762;56.068;2023-03-01T04:05:54;11.53;;;8.13;;
29634;SDS011;16557;54.762;56.068;2023-03-01T04:08:28;12.80;;;7.85;;
29634;SDS011;16557;54.762;56.068;2023-03-01T04:10:58;12.20;;;7.95;;
29634;SDS011;16557;54.762;56.068;2023-03-01T04:13:30;10.55;;;7.12;;
29634;SDS011;16557;54.762;56.068;2023-03-01T04:15:59;12.58;;;7.25;;
29634;SDS011;16557;54.762;56.068;2023-03-01T04:18:29;12.82;;;8.05;;
29634;SDS011;16557;54.762;56.068;2023-03-01T04:20:58;12.15;;;8.15;;
29634;SDS011;16557;54.762;56.068;2023-03-01T04:23:28;11.85;;;8.18;;
29634;SDS011;16557;54.762;56.068;2023-03-01T04:25:57;10.68;;;7.58;;
29634;SDS011;16557;54.762;56.068;2023-03-01T04:28:32;10.68;;;7.83;;
29634;SDS011;16557;54.762;56.068;2023-03-01T04:31:04;10.85;;;7.28;;
29634;SDS011;16557;54.762;56.068;2023-03-01T04:33:36;12.07;;;7.97;;
29634;SDS011;16557;54.762;56.068;2023-03-01T04:36:05;10.70;;;7.65;;
29634;SDS011;16557;54.762;56.068;2023-03-01T04:38:36;13.28;;;8.55;;
29634;SDS011;16557;54.762;56.068;2023-03-01T04:41:06;12.78;;;8.53;;
29634;SDS011;16557;54.762;56.068;2023-03-01T04:43:37;10.95;;;7.90;;
29634;SDS011;16557;54.762;56.068;2023-03-01T04:46:07;11.40;;;7.97;;
29634;SDS011;16557;54.762;56.068;2023-03-01T04:48:38;13.08;;;9.23;;
29634;SDS011;16557;54.762;56.068;2023-03-01T04:51:08;11.95;;;7.80;;
29634;SDS011;16557;54.762;56.068;2023-03-01T04:53:39;11.53;;;8.00;;
29634;SDS011;16557;54.762;56.068;2023-03-01T04:56:08;11.57;;;8.08;;
29634;SDS011;16557;54.762;56.068;2023-03-01T04:58:38;12.65;;;7.80;;
29634;SDS011;16557;54.762;56.068;2023-03-01T05:01:14;11.93;;;7.60;;
29634;SDS011;16557;54.762;56.068;2023-03-01T05:03:47;12.95;;;8.05;;
29634;SDS011;16557;54.762;56.068;2023-03-01T05:06:18;11.60;;;7.95;;
29634;SDS011;16557;54.762;56.068;2023-03-01T05:08:48;13.40;;;8.58;;
29634;SDS011;16557;54.762;56.068;2023-03-01T05:11:17;11.80;;;8.15;;
29634;SDS011;16557;54.762;56.068;2023-03-01T05:13:46;12.53;;;9.13;;
29634;SDS011;16557;54.762;56.068;2023-03-01T05:16:17;14.25;;;9.03;;
29634;SDS011;16557;54.762;56.068;2023-03-01T05:18:47;12.93;;;8.73;;
29634;SDS011;16557;54.762;56.068;2023-03-01T05:21:17;12.55;;;8.50;;
29634;SDS011;16557;54.762;56.068;2023-03-01T05:23:47;15.10;;;9.50;;
29634;SDS011;16557;54.762;56.068;2023-03-01T05:26:17;12.75;;;8.20;;
29634;SDS011;16557;54.762;56.068;2023-03-01T05:28:48;12.73;;;8.20;;
29634;SDS011;16557;54.762;56.068;2023-03-01T05:31:17;12.55;;;8.65;;
29634;SDS011;16557;54.762;56.068;2023-03-01T05:33:47;14.98;;;8.65;;
29634;SDS011;16557;54.762;56.068;2023-03-01T05:36:16;20.80;;;13.03;;
29634;SDS011;16557;54.762;56.068;2023-03-01T05:38:46;15.53;;;10.32;;
29634;SDS011;16557;54.762;56.068;2023-03-01T05:41:15;14.53;;;9.28;;
29634;SDS011;16557;54.762;56.068;2023-03-01T05:43:44;15.88;;;9.55;;
29634;SDS011;16557;54.762;56.068;2023-03-01T05:46:13;12.88;;;8.45;;
29634;SDS011;16557;54.762;56.068;2023-03-01T05:48:43;11.15;;;8.18;;
29634;SDS011;16557;54.762;56.068;2023-03-01T05:51:12;11.57;;;7.87;;
29634;SDS011;16557;54.762;56.068;2023-03-01T05:53:41;15.08;;;8.88;;
29634;SDS011;16557;54.762;56.068;2023-03-01T05:56:10;12.37;;;8.98;;
29634;SDS011;16557;54.762;56.068;2023-03-01T05:58:39;10.08;;;7.08;;
29634;SDS011;16557;54.762;56.068;2023-03-01T06:01:11;13.18;;;8.45;;
29634;SDS011;16557;54.762;56.068;2023-03-01T06:03:41;12.60;;;8.28;;
29634;SDS011;16557;54.762;56.068;2023-03-01T06:06:10;12.28;;;7.80;;
29634;SDS011;16557;54.762;56.068;2023-03-01T06:08:40;11.28;;;7.25;;
29634;SDS011;16557;54.762;56.068;2023-03-01T06:11:12;11.93;;;7.77;;
29634;SDS011;16557;54.762;56.068;2023-03-01T06:13:42;10.00;;;7.28;;
29634;SDS011;16557;54.762;56.068;2023-03-01T06:16:12;10.68;;;6.60;;
29634;SDS011;16557;54.762;56.068;2023-03-01T06:18:44;11.35;;;7.83;;
29634;SDS011;16557;54.762;56.068;2023-03-01T06:21:12;9.75;;;7.08;;
29634;SDS011;16557;54.762;56.068;2023-03-01T06:23:42;10.50;;;7.03;;
29634;SDS011;16557;54.762;56.068;2023-03-01T06:26:11;9.90;;;6.55;;
29634;SDS011;16557;54.762;56.068;2023-03-01T06:28:40;9.35;;;6.72;;
29634;SDS011;16557;54.762;56.068;2023-03-01T06:31:09;11.18;;;7.22;;
29634;SDS011;16557;54.762;56.068;2023-03-01T06:33:38;9.53;;;7.05;;
29634;SDS011;16557;54.762;56.068;2023-03-01T06:36:08;10.35;;;7.45;;
29634;SDS011;16557;54.762;56.068;2023-03-01T06:38:37;12.78;;;7.97;;
29634;SDS011;16557;54.762;56.068;2023-03-01T06:41:07;10.38;;;7.05;;
29634;SDS011;16557;54.762;56.068;2023-03-01T06:43:37;10.93;;;7.47;;
29634;SDS011;16557;54.762;56.068;2023-03-01T06:46:06;11.30;;;6.80;;
29634;SDS011;16557;54.762;56.068;2023-03-01T06:48:35;9.15;;;6.15;;
29634;SDS011;16557;54.762;56.068;2023-03-01T06:51:04;11.90;;;6.97;;
29634;SDS011;16557;54.762;56.068;2023-03-01T06:53:34;9.90;;;6.22;;
29634;SDS011;16557;54.762;56.068;2023-03-01T06:56:03;15.45;;;9.00;;
29634;SDS011;16557;54.762;56.068;2023-03-01T06:58:32;9.93;;;6.83;;
29634;SDS011;16557;54.762;56.068;2023-03-01T07:01:05;9.08;;;6.55;;
29634;SDS011;16557;54.762;56.068;2023-03-01T07:03:35;9.35;;;6.67;;
29634;SDS011;16557;54.762;56.068;2023-03-01T07:06:04;8.60;;;6.30;;
29634;SDS011;16557;54.762;56.068;2023-03-01T07:08:34;9.38;;;6.47;;
29634;SDS011;16557;54.762;56.068;2023-03-01T07:11:03;12.70;;;6.42;;
29634;SDS011;16557;54.762;56.068;2023-03-01T07:13:33;9.90;;;6.42;;
29634;SDS011;16557;54.762;56.068;2023-03-01T07:16:02;8.98;;;6.35;;
29634;SDS011;16557;54.762;56.068;2023-03-01T07:18:31;7.90;;;6.00;;
29634;SDS011;16557;54.762;56.068;2023-03-01T07:21:05;10.00;;;7.08;;
29634;SDS011;16557;54.762;56.068;2023-03-01T07:23:35;9.05;;;6.58;;
29634;SDS011;16557;54.762;56.068;2023-03-01T07:26:04;8.85;;;6.12;;
29634;SDS011;16557;54.762;56.068;2023-03-01T07:28:34;8.38;;;6.45;;
29634;SDS011;16557;54.762;56.068;2023-03-01T07:31:05;8.28;;;6.12;;
29634;SDS011;16557;54.762;56.068;2023-03-01T07:33:34;11.12;;;7.80;;
29634;SDS011;16557;54.762;56.068;2023-03-01T07:36:03;10.85;;;6.25;;
29634;SDS011;16557;54.762;56.068;2023-03-01T07:38:33;8.90;;;6.40;;
29634;SDS011;16557;54.762;56.068;2023-03-01T07:41:03;7.95;;;6.20;;
29634;SDS011;16557;54.762;56.068;2023-03-01T07:43:33;8.03;;;6.00;;
29634;SDS011;16557;54.762;56.068;2023-03-01T07:46:03;9.23;;;6.62;;
29634;SDS011;16557;54.762;56.068;2023-03-01T07:48:33;9.23;;;6.33;;
29634;SDS011;16557;54.762;56.068;2023-03-01T07:51:03;7.15;;;5.37;;
29634;SDS011;16557;54.762;56.068;2023-03-01T07:53:33;9.33;;;5.87;;
29634;SDS011;16557;54.762;56.068;2023-03-01T07:56:03;10.72;;;6.42;;
29634;SDS011;16557;54.762;56.068;2023-03-01T07:58:34;9.40;;;5.95;;
29634;SDS011;16557;54.762;56.068;2023-03-01T08:01:05;10.05;;;5.72;;
29634;SDS011;16557;54.762;56.068;2023-03-01T08:03:35;9.63;;;6.35;;
29634;SDS011;16557;54.762;56.068;2023-03-01T08:06:06;9.03;;;6.05;;
29634;SDS011;16557;54.762;56.068;2023-03-01T08:08:36;7.47;;;5.55;;
29634;SDS011;16557;54.762;56.068;2023-03-01T08:11:06;10.30;;;6.70;;
29634;SDS011;16557;54.762;56.068;2023-03-01T08:13:37;8.73;;;6.50;;
29634;SDS011;16557;54.762;56.068;2023-03-01T08:16:10;8.60;;;6.40;;
29634;SDS011;16557;54.762;56.068;2023-03-01T08:18:41;9.75;;;5.95;;
29634;SDS011;16557;54.762;56.068;2023-03-01T08:21:15;9.38;;;6.15;;
29634;SDS011;16557;54.762;56.068;2023-03-01T08:23:48;10.53;;;7.03;;
29634;SDS011;16557;54.762;56.068;2023-03-01T08:26:14;9.25;;;6.87;;
29634;SDS011;16557;54.762;56.068;2023-03-01T08:28:46;8.88;;;6.50;;
29634;SDS011;16557;54.762;56.068;2023-03-01T08:31:17;8.98;;;6.58;;
29634;SDS011;16557;54.762;56.068;2023-03-01T08:33:48;9.98;;;6.78;;
29634;SDS011;16557;54.762;56.068;2023-03-01T08:36:20;10.65;;;6.83;;
29634;SDS011;16557;54.762;56.068;2023-03-01T08:38:54;9.73;;;6.67;;
29634;SDS011;16557;54.762;56.068;2023-03-01T08:41:24;10.63;;;6.55;;
29634;SDS011;16557;54.762;56.068;2023-03-01T08:43:53;11.10;;;7.90;;
29634;SDS011;16557;54.762;56.068;2023-03-01T08:46:27;7.75;;;6.47;;
29634;SDS011;16557;54.762;56.068;2023-03-01T08:48:58;10.40;;;7.47;;
29634;SDS011;16557;54.762;56.068;2023-03-01T08:51:28;9.48;;;7.15;;
29634;SDS011;16557;54.762;56.068;2023-03-01T08:53:59;11.15;;;6.75;;
29634;SDS011;16557;54.762;56.068;2023-03-01T08:56:28;10.53;;;7.25;;
29634;SDS011;16557;54.762;56.068;2023-03-01T08:58:57;8.60;;;6.80;;
29634;SDS011;16557;54.762;56.068;2023-03-01T09:01:26;8.40;;;6.72;;
29634;SDS011;16557;54.762;56.068;2023-03-01T09:03:56;11.50;;;7.40;;
29634;SDS011;16557;54.762;56.068;2023-03-01T09:06:25;9.68;;;7.08;;
29634;SDS011;16557;54.762;56.068;2023-03-01T09:08:54;10.45;;;7.37;;
29634;SDS011;16557;54.762;56.068;2023-03-01T09:11:23;9.58;;;7.20;;
29634;SDS011;16557;54.762;56.068;2023-03-01T09:13:52;10.25;;;7.37;;
29634;SDS011;16557;54.762;56.068;2023-03-01T09:16:22;8.70;;;6.65;;
29634;SDS011;16557;54.762;56.068;2023-03-01T09:18:52;9.80;;;7.42;;
29634;SDS011;16557;54.762;56.068;2023-03-01T09:21:22;9.03;;;6.55;;
29634;SDS011;16557;54.762;56.068;2023-03-01T09:23:52;8.63;;;6.83;;
29634;SDS011;16557;54.762;56.068;2023-03-01T09:26:21;12.43;;;8.58;;
29634;SDS011;16557;54.762;56.068;2023-03-01T09:28:52;9.95;;;7.08;;
29634;SDS011;16557;54.762;56.068;2023-03-01T09:31:23;10.00;;;7.35;;
29634;SDS011;16557;54.762;56.068;2023-03-01T09:33:53;11.10;;;7.70;;
29634;SDS011;16557;54.762;56.068;2023-03-01T09:36:23;11.30;;;7.42;;
29634;SDS011;16557;54.762;56.068;2023-03-01T09:46:59;12.98;;;9.08;;
29634;SDS011;16557;54.762;56.068;2023-03-01T09:49:30;11.75;;;7.83;;
29634;SDS011;16557;54.762;56.068;2023-03-01T09:54:54;12.47;;;8.28;;
29634;SDS011;16557;54.762;56.068;2023-03-01T10:03:17;11.05;;;8.05;;
29634;SDS011;16557;54.762;56.068;2023-03-01T10:05:56;11.93;;;8.73;;
29634;SDS011;16557;54.762;56.068;2023-03-01T10:08:41;14.00;;;8.83;;
29634;SDS011;16557;54.762;56.068;2023-03-01T10:11:26;12.28;;;8.13;;
29634;SDS011;16557;54.762;56.068;2023-03-01T10:13:55;11.57;;;8.70;;
29634;SDS011;16557;54.762;56.068;2023-03-01T10:16:41;12.95;;;9.10;;
29634;SDS011;16557;54.762;56.068;2023-03-01T10:19:27;11.68;;;8.28;;
29634;SDS011;16557;54.762;56.068;2023-03-01T10:22:15;12.95;;;8.60;;
29634;SDS011;16557;54.762;56.068;2023-03-01T10:24:51;15.25;;;8.08;;
29634;SDS011;16557;54.762;56.068;2023-03-01T10:27:22;14.95;;;9.63;;
29634;SDS011;16557;54.762;56.068;2023-03-01T10:32:47;12.65;;;9.08;;
29634;SDS011;16557;54.762;56.068;2023-03-01T10:35:20;11.65;;;8.60;;
29634;SDS011;16557;54.762;56.068;2023-03-01T10:40:35;13.22;;;9.45;;
29634;SDS011;16557;54.762;56.068;2023-03-01T10:43:05;12.10;;;8.68;;
29634;SDS011;16557;54.762;56.068;2023-03-01T10:45:38;13.62;;;9.15;;
29634;SDS011;16557;54.762;56.068;2023-03-01T10:48:16;14.37;;;9.80;;
29634;SDS011;16557;54.762;56.068;2023-03-01T10:50:49;11.43;;;8.50;;
29634;SDS011;16557;54.762;56.068;2023-03-01T10:56:07;13.98;;;9.25;;
29634;SDS011;16557;54.762;56.068;2023-03-01T10:58:39;12.58;;;8.80;;
29634;SDS011;16557;54.762;56.068;2023-03-01T11:03:54;15.90;;;10.05;;
29634;SDS011;16557;54.762;56.068;2023-03-01T11:06:25;12.78;;;9.40;;
29634;SDS011;16557;54.762;56.068;2023-03-01T11:08:54;12.78;;;9.28;;
29634;SDS011;16557;54.762;56.068;2023-03-01T11:11:33;15.25;;;10.45;;
29634;SDS011;16557;54.762;56.068;2023-03-01T11:14:06;12.43;;;9.58;;
29634;SDS011;16557;54.762;56.068;2023-03-01T11:16:57;14.98;;;10.25;;
29634;SDS011;16557;54.762;56.068;2023-03-01T11:19:30;15.50;;;10.65;;
29634;SDS011;16557;54.762;56.068;2023-03-01T11:22:03;16.57;;;11.30;;
29634;SDS011;16557;54.762;56.068;2023-03-01T11:24:43;13.50;;;9.50;;
29634;SDS011;16557;54.762;56.068;2023-03-01T11:27:18;15.90;;;10.38;;
29634;SDS011;16557;54.762;56.068;2023-03-01T11:32:47;14.53;;;10.25;;
29634;SDS011;16557;54.762;56.068;2023-03-01T11:35:17;13.95;;;10.43;;
29634;SDS011;16557;54.762;56.068;2023-03-01T11:40:27;15.08;;;10.23;;
29634;SDS011;16557;54.762;56.068;2023-03-01T11:43:03;13.78;;;9.73;;
29634;SDS011;16557;54.762;56.068;2023-03-01T12:08:24;17.07;;;11.05;;
29634;SDS011;16557;54.762;56.068;2023-03-01T12:11:03;15.93;;;11.28;;
29634;SDS011;16557;54.762;56.068;2023-03-01T12:19:39;16.47;;;11.33;;
29634;SDS011;16557;54.762;56.068;2023-03-01T12:22:21;17.70;;;11.03;;
29634;SDS011;16557;54.762;56.068;2023-03-01T12:28:02;16.30;;;10.98;;
29634;SDS011;16557;54.762;56.068;2023-03-01T12:30:35;16.73;;;10.53;;
29634;SDS011;16557;54.762;56.068;2023-03-01T12:33:40;14.50;;;10.60;;
29634;SDS011;16557;54.762;56.068;2023-03-01T12:36:31;15.88;;;10.65;;
29634;SDS011;16557;54.762;56.068;2023-03-01T12:39:15;14.83;;;10.45;;
29634;SDS011;16557;54.762;56.068;2023-03-01T12:51:38;17.35;;;11.60;;
29634;SDS011;16557;54.762;56.068;2023-03-01T12:54:33;15.90;;;11.38;;
29634;SDS011;16557;54.762;56.068;2023-03-01T12:56:59;19.37;;;13.43;;
29634;SDS011;16557;54.762;56.068;2023-03-01T12:59:41;16.10;;;11.53;;
29634;SDS011;16557;54.762;56.068;2023-03-01T13:02:24;16.48;;;12.23;;
29634;SDS011;16557;54.762;56.068;2023-03-01T13:13:19;19.40;;;12.73;;
29634;SDS011;16557;54.762;56.068;2023-03-01T13:15:49;18.75;;;11.83;;
29634;SDS011;16557;54.762;56.068;2023-03-01T13:20:54;18.73;;;12.65;;
29634;SDS011;16557;54.762;56.068;2023-03-01T13:23:30;17.73;;;12.45;;
29634;SDS011;16557;54.762;56.068;2023-03-01T13:33:51;17.35;;;11.53;;
29634;SDS011;16557;54.762;56.068;2023-03-01T13:39:00;15.20;;;10.93;;
29634;SDS011;16557;54.762;56.068;2023-03-01T13:44:21;16.50;;;11.30;;
29634;SDS011;16557;54.762;56.068;2023-03-01T13:46:56;16.52;;;11.05;;
29634;SDS011;16557;54.762;56.068;2023-03-01T13:49:41;18.65;;;10.20;;
29634;SDS011;16557;54.762;56.068;2023-03-01T13:52:01;14.87;;;9.98;;
29634;SDS011;16557;54.762;56.068;2023-03-01T13:54:32;17.52;;;10.32;;
29634;SDS011;16557;54.762;56.068;2023-03-01T13:57:01;17.45;;;10.90;;
29634;SDS011;16557;54.762;56.068;2023-03-01T13:59:31;14.33;;;9.53;;
29634;SDS011;16557;54.762;56.068;2023-03-01T14:02:00;17.00;;;10.10;;
29634;SDS011;16557;54.762;56.068;2023-03-01T14:04:30;12.90;;;8.90;;
29634;SDS011;16557;54.762;56.068;2023-03-01T14:07:12;16.57;;;10.75;;
29634;SDS011;16557;54.762;56.068;2023-03-01T14:09:56;14.93;;;10.25;;
29634;SDS011;16557;54.762;56.068;2023-03-01T14:20:50;17.48;;;10.15;;
29634;SDS011;16557;54.762;56.068;2023-03-01T14:23:21;15.03;;;10.00;;
29634;SDS011;16557;54.762;56.068;2023-03-01T14:25:52;14.00;;;9.95;;
29634;SDS011;16557;54.762;56.068;2023-03-01T14:28:29;16.23;;;10.32;;
29634;SDS011;16557;54.762;56.068;2023-03-01T14:31:01;14.50;;;9.35;;
29634;SDS011;16557;54.762;56.068;2023-03-01T14:33:32;18.05;;;10.78;;
29634;SDS011;16557;54.762;56.068;2023-03-01T14:38:37;16.10;;;9.93;;
29634;SDS011;16557;54.762;56.068;2023-03-01T14:41:18;15.15;;;9.78;;
29634;SDS011;16557;54.762;56.068;2023-03-01T14:43:57;15.08;;;9.43;;
29634;SDS011;16557;54.762;56.068;2023-03-01T14:46:37;14.18;;;8.43;;
29634;SDS011;16557;54.762;56.068;2023-03-01T14:51:55;11.25;;;7.50;;
29634;SDS011;16557;54.762;56.068;2023-03-01T14:57:13;11.10;;;7.33;;
29634;SDS011;16557;54.762;56.068;2023-03-01T14:59:50;10.38;;;6.60;;
29634;SDS011;16557;54.762;56.068;2023-03-01T15:02:23;10.70;;;6.50;;
29634;SDS011;16557;54.762;56.068;2023-03-01T15:04:56;11.60;;;6.90;;
29634;SDS011;16557;54.762;56.068;2023-03-01T15:07:30;9.18;;;6.50;;
29634;SDS011;16557;54.762;56.068;2023-03-01T15:10:02;12.20;;;7.30;;
29634;SDS011;16557;54.762;56.068;2023-03-01T15:15:19;11.40;;;6.10;;
29634;SDS011;16557;54.762;56.068;2023-03-01T15:17:53;8.75;;;5.42;;
29634;SDS011;16557;54.762;56.068;2023-03-01T15:20:26;8.28;;;5.45;;
29634;SDS011;16557;54.762;56.068;2023-03-01T15:22:57;7.40;;;4.42;;
29634;SDS011;16557;54.762;56.068;2023-03-01T15:25:27;6.85;;;4.08;;
29634;SDS011;16557;54.762;56.068;2023-03-01T15:27:57;8.35;;;4.80;;
29634;SDS011;16557;54.762;56.068;2023-03-01T15:30:29;10.00;;;5.72;;
29634;SDS011;16557;54.762;56.068;2023-03-01T15:33:19;7.10;;;3.52;;
29634;SDS011;16557;54.762;56.068;2023-03-01T15:35:55;7.87;;;3.65;;
29634;SDS011;16557;54.762;56.068;2023-03-01T15:38:30;7.20;;;4.47;;
29634;SDS011;16557;54.762;56.068;2023-03-01T15:43:53;7.50;;;4.28;;
29634;SDS011;16557;54.762;56.068;2023-03-01T15:46:27;6.85;;;3.75;;
29634;SDS011;16557;54.762;56.068;2023-03-01T15:48:59;9.63;;;5.37;;
29634;SDS011;16557;54.762;56.068;2023-03-01T15:51:36;6.08;;;3.67;;
29634;SDS011;16557;54.762;56.068;2023-03-01T15:54:11;8.23;;;4.45;;
29634;SDS011;16557;54.762;56.068;2023-03-01T15:56:37;8.73;;;3.67;;
29634;SDS011;16557;54.762;56.068;2023-03-01T15:59:09;6.92;;;3.50;;
29634;SDS011;16557;54.762;56.068;2023-03-01T16:01:39;6.47;;;3.17;;
29634;SDS011;16557;54.762;56.068;2023-03-01T16:04:12;7.10;;;3.58;;
29634;SDS011;16557;54.762;56.068;2023-03-01T16:06:44;5.95;;;3.02;;
29634;SDS011;16557;54.762;56.068;2023-03-01T16:09:14;6.92;;;2.70;;
29634;SDS011;16557;54.762;56.068;2023-03-01T16:11:43;6.15;;;3.27;;
29634;SDS011;16557;54.762;56.068;2023-03-01T16:14:12;5.97;;;3.17;;
29634;SDS011;16557;54.762;56.068;2023-03-01T16:16:44;8.63;;;3.60;;
29634;SDS011;16557;54.762;56.068;2023-03-01T16:19:15;5.20;;;2.85;;
29634;SDS011;16557;54.762;56.068;2023-03-01T16:21:47;4.65;;;2.77;;
29634;SDS011;16557;54.762;56.068;2023-03-01T16:24:17;6.20;;;2.00;;
29634;SDS011;16557;54.762;56.068;2023-03-01T16:26:46;6.10;;;2.00;;
29634;SDS011;16557;54.762;56.068;2023-03-01T16:29:15;5.33;;;1.57;;
29634;SDS011;16557;54.762;56.068;2023-03-01T16:31:44;7.50;;;2.40;;
29634;SDS011;16557;54.762;56.068;2023-03-01T16:34:14;4.33;;;1.40;;
29634;SDS011;16557;54.762;56.068;2023-03-01T16:36:46;5.47;;;2.33;;
29634;SDS011;16557;54.762;56.068;2023-03-01T16:39:14;5.10;;;2.00;;
29634;SDS011;16557;54.762;56.068;2023-03-01T16:41:44;4.37;;;1.40;;
29634;SDS011;16557;54.762;56.068;2023-03-01T16:44:14;6.72;;;1.50;;
29634;SDS011;16557;54.762;56.068;2023-03-01T16:46:43;4.83;;;1.55;;
29634;SDS011;16557;54.762;56.068;2023-03-01T16:49:13;7.25;;;2.02;;
29634;SDS011;16557;54.762;56.068;2023-03-01T16:51:42;4.25;;;1.60;;
29634;SDS011;16557;54.762;56.068;2023-03-01T16:54:11;5.08;;;1.37;;
29634;SDS011;16557;54.762;56.068;2023-03-01T16:56:40;6.10;;;1.42;;
29634;SDS011;16557;54.762;56.068;2023-03-01T16:59:10;7.85;;;1.77;;
29634;SDS011;16557;54.762;56.068;2023-03-01T17:01:39;5.75;;;1.87;;
29634;SDS011;16557;54.762;56.068;2023-03-01T17:04:10;5.80;;;1.95;;
29634;SDS011;16557;54.762;56.068;2023-03-01T17:06:40;5.47;;;1.40;;
29634;SDS011;16557;54.762;56.068;2023-03-01T17:09:09;5.12;;;1.55;;
29634;SDS011;16557;54.762;56.068;2023-03-01T17:11:39;3.75;;;1.12;;